Flight Track Log - Related Links

Times and Time Zones

All times are in EDT time to prevent confusion due to time zone crossing. See the AWE434 flight status page for this flight to view local times or setup timezone preferences in your user account.

Time Position Orientation Groundspeed Altitude Reporting Facility
EDT Latitude Longitude Course Direction KTS MPH feet Rate Location/Type
Mon 01:18:26 AM 37.6833 -122.3333 80° East 172 198 3,300  Level Northern Cal TRACON
Mon 01:19:26 AM 37.7333 -122.3500 345° North 226 260 4,400 1,750 Climbing Northern Cal TRACON
Mon 01:20:00 AM 37.9462 -122.2933 80° East  Level FlightAware Approximate
Mon 01:20:26 AM 37.8000 -122.3833 338° Northwest 267 307 6,800  Level Northern Cal TRACON
Mon 01:21:00 AM 37.9618 -122.1253 84° East  Level FlightAware Approximate
Mon 01:21:26 AM 37.8667 -122.3333 31° Northeast 297 342 9,200  Level Northern Cal TRACON
Mon 01:22:00 AM 37.9770 -121.9585 72° East  Level FlightAware Approximate
Mon 01:22:10 AM 37.8756 -122.2636 81° East 291 335 10,700  Level Oakland Center
Mon 01:23:00 AM 37.9847 -121.7904 80° East  Level FlightAware Approximate
Mon 01:23:11 AM 37.8939 -122.1436 79° East 332 382 11,500  Level Oakland Center
Mon 01:24:11 AM 37.9169 -122.0050 78° East 398 458 12,800 1,686 Climbing Oakland Center
Mon 01:25:12 AM 37.9392 -121.8631 79° East 408 470 14,900 1,869 Climbing Oakland Center
Mon 01:26:13 AM 37.9631 -121.7153 78° East 419 482 16,600 1,475 Climbing Oakland Center
Mon 01:27:14 AM 37.9900 -121.5642 77° East 434 499 17,900 1,377 Climbing Oakland Center
Mon 01:28:15 AM 38.0292 -121.4156 71° East 445 512 19,400 1,475 Climbing Oakland Center
Mon 01:29:16 AM 38.0667 -121.2628 73° East 450 518 20,900 1,438 Climbing Oakland Center
Mon 01:30:16 AM 38.1136 -121.0758 72° East 462 532 22,300 1,190 Climbing Oakland Center
Mon 01:31:17 AM 38.1531 -120.9144 73° East 479 551 23,300 984 Climbing Oakland Center
Mon 01:32:18 AM 38.1936 -120.7475 73° East 494 568 24,300 934 Climbing Oakland Center
Mon 01:33:19 AM 38.2339 -120.5797 73° East 497 572 25,200 934 Climbing Oakland Center
Mon 01:34:20 AM 38.2739 -120.4086 73° East 504 580 26,200 992 Climbing Oakland Center
Mon 01:35:20 AM 38.3156 -120.2358 73° East 508 585 27,200 992 Climbing Oakland Center
Mon 01:36:21 AM 38.3589 -120.0611 72° East 517 595 28,200 984 Climbing Oakland Center
Mon 01:37:22 AM 38.3992 -119.8878 73° East 513 590 29,200 1,033 Climbing Oakland Center
Mon 01:38:23 AM 38.4444 -119.6956 73° East 513 590 30,300 1,082 Climbing Oakland Center
Mon 01:39:24 AM 38.4844 -119.5228 73° East 512 589 31,400 992 Climbing Oakland Center
Mon 01:40:24 AM 38.5242 -119.3497 74° East 511 588 32,300 793 Climbing Oakland Center
Mon 01:41:25 AM 38.5628 -119.1792 74° East 508 585 33,000 344 Climbing Oakland Center
Mon 01:42:26 AM 38.6031 -119.0031 74° East 515 593 33,000  Level Oakland Center
Mon 01:43:27 AM 38.6431 -118.8253 74° East 523 602 33,000  Level Oakland Center
Mon 01:44:27 AM 38.6828 -118.6467 74° East 523 602 33,000  Level Oakland Center
Mon 01:45:28 AM 38.7219 -118.4672 74° East 525 604 33,000 49 Level Oakland Center
Mon 01:46:29 AM 38.7619 -118.2872 74° East 527 606 33,100  Climbing Oakland Center
Mon 01:47:30 AM 38.8097 -118.0719 74° East 527 606 33,000 -50 Descending Oakland Center
Mon 01:48:30 AM 38.8475 -117.8931 75° East 527 606 33,000  Level Oakland Center
Mon 01:49:31 AM 38.8817 -117.7325 75° East 526 605 33,000  Level Oakland Center
Mon 01:50:32 AM 38.9242 -117.5342 75° East 525 604 33,000  Level Oakland Center
Mon 01:51:32 AM 38.9628 -117.3533 75° East 526 605 33,000 50 Level Oakland Center
Mon 01:52:33 AM 39.0000 -117.1714 75° East 528 608 33,100  Climbing Oakland Center
Mon 01:53:34 AM 39.0353 -117.0003 75° East 528 608 33,000 -98 Descending Oakland Center
Mon 01:54:35 AM 39.0728 -116.8192 75° East 524 603 32,900  Descending Oakland Center
Mon 01:55:35 AM 39.1103 -116.6350 75° East 528 608 33,000 50 Climbing Oakland Center
Mon 01:56:36 AM 39.1514 -116.4358 75° East 528 608 33,000  Level Oakland Center
Mon 01:57:37 AM 39.1856 -116.2600 76° East 528 608 33,000  Level Oakland Center
Mon 01:58:37 AM 39.2264 -116.0528 76° East 531 611 33,000  Level Oakland Center
Mon 01:59:44 AM 39.2667 -115.8444 76° East 534 615 33,000 47 Level Salt Lake Center
Mon 02:00:45 AM 39.3017 -115.6650 76° East 536 617 33,100  Climbing Salt Lake Center
Mon 02:01:46 AM 39.3372 -115.4833 76° East 542 624 33,000 -50 Descending Salt Lake Center
Mon 02:02:46 AM 39.3767 -115.2728 76° East 542 624 33,000  Level Salt Lake Center
Mon 02:03:47 AM 39.4108 -115.0908 76° East 542 624 33,000  Level Salt Lake Center
Mon 02:04:48 AM 39.4456 -114.9069 76° East 546 628 33,000  Level Salt Lake Center
Mon 02:05:49 AM 39.4853 -114.6939 76° East 549 632 33,000  Level Salt Lake Center
Mon 02:06:49 AM 39.5181 -114.5100 77° East 547 629 33,000  Level Salt Lake Center
Mon 02:07:50 AM 39.5528 -114.3217 76° East 547 629 33,000  Level Salt Lake Center
Mon 02:08:50 AM 39.5858 -114.1361 77° East 535 616 33,000  Level Salt Lake Center
Mon 02:09:51 AM 39.6192 -113.9483 77° East 535 616 33,000 49 Level Salt Lake Center
Mon 02:10:52 AM 39.6528 -113.7586 77° East 536 617 33,100  Climbing Salt Lake Center
Mon 02:11:52 AM 39.6850 -113.5706 77° East 536 617 33,000 -50 Descending Salt Lake Center
Mon 02:12:53 AM 39.7172 -113.3872 77° East 525 604 33,000  Level Salt Lake Center
Mon 02:13:53 AM 39.7489 -113.2050 77° East 521 600 33,000 50 Level Salt Lake Center
Mon 02:14:54 AM 39.7775 -113.0228 78° East 520 598 33,100  Climbing Salt Lake Center
Mon 02:15:55 AM 39.8089 -112.8414 77° East 518 596 33,000 -50 Descending Salt Lake Center
Mon 02:16:55 AM 39.8383 -112.6600 78° East 517 595 33,000  Level Salt Lake Center
Mon 02:17:56 AM 39.8744 -112.4436 78° East 515 593 33,000  Level Salt Lake Center
Mon 02:18:56 AM 39.9042 -112.2647 78° East 510 587 33,000  Level Salt Lake Center
Mon 02:19:57 AM 39.9328 -112.0844 78° East 511 588 33,000  Level Salt Lake Center
Mon 02:20:57 AM 39.9606 -111.9075 78° East 505 581 33,000 -50 Level Salt Lake Center
Mon 02:21:58 AM 39.9886 -111.7306 78° East 504 580 32,900  Descending Salt Lake Center
Mon 02:22:59 AM 40.0158 -111.5492 79° East 504 580 33,000 50 Climbing Salt Lake Center
Mon 02:23:59 AM 40.0428 -111.3753 79° East 503 579 33,000  Level Salt Lake Center
Mon 02:25:00 AM 40.0689 -111.1989 79° East 501 577 33,000  Level Salt Lake Center
Mon 02:26:00 AM 40.0964 -111.0217 78° East 500 575 33,000  Level Salt Lake Center
Mon 02:27:01 AM 40.1225 -110.8428 79° East 495 570 33,000  Level Salt Lake Center
Mon 02:28:01 AM 40.1475 -110.6758 79° East 491 565 33,000  Level Salt Lake Center
Mon 02:29:02 AM 40.1750 -110.4831 79° East 487 560 33,000  Level Salt Lake Center
Mon 02:30:02 AM 40.1994 -110.3167 79° East 486 559 33,000  Level Salt Lake Center
Mon 02:31:03 AM 40.2228 -110.1486 80° East 487 560 33,000 49 Level Salt Lake Center
Mon 02:32:04 AM 40.2511 -109.9506 79° East 490 564 33,100 50 Climbing Salt Lake Center
Mon 02:33:04 AM 40.2750 -109.7814 79° East 495 570 33,100  Level Salt Lake Center
Mon 02:34:05 AM 40.2975 -109.6164 80° East 485 558 33,100 -50 Level Salt Lake Center
Mon 02:35:05 AM 40.3200 -109.4522 80° East 480 552 33,000 -50 Descending Salt Lake Center
Mon 02:36:06 AM 40.3464 -109.2614 80° East 480 552 33,000  Level Salt Lake Center
Mon 02:37:06 AM 40.3681 -109.1006 80° East 470 541 33,000  Level Salt Lake Center
Mon 02:38:07 AM 40.3883 -108.9364 81° East 470 541 33,000  Level Salt Lake Center
Mon 02:38:47 AM 40.4061 -108.7975 80° East 474 545 33,000  Level Denver Center
Mon 02:39:47 AM 40.4269 -108.6333 80° East 474 545 33,000 50 Level Denver Center
Mon 02:40:48 AM 40.4486 -108.4678 80° East 475 547 33,100  Climbing Denver Center
Mon 02:41:48 AM 40.4689 -108.3042 81° East 476 548 33,000 -50 Descending Denver Center
Mon 02:42:48 AM 40.4917 -108.1147 81° East 473 544 33,000  Level Denver Center
Mon 02:43:49 AM 40.5122 -107.9525 80° East 470 541 33,000  Level Denver Center
Mon 02:44:49 AM 40.5300 -107.7908 82° East 470 541 33,000  Level Denver Center
Mon 02:45:50 AM 40.5506 -107.6300 80° East 468 539 33,000  Level Denver Center
Mon 02:46:50 AM 40.5719 -107.4411 81° East 468 539 33,000  Level Denver Center
Mon 02:47:50 AM 40.5908 -107.2803 81° East 467 537 33,000  Level Denver Center
Mon 02:48:51 AM 40.6111 -107.1069 81° East 467 537 33,000  Level Denver Center
Mon 02:49:51 AM 40.6303 -106.9392 81° East 466 536 33,000  Level Denver Center
Mon 02:50:52 AM 40.6486 -106.7731 82° East 458 527 33,000  Level Denver Center
Mon 02:51:52 AM 40.6669 -106.6081 82° East 457 526 33,000  Level Denver Center
Mon 02:52:52 AM 40.6856 -106.4353 82° East 450 518 33,000  Level Denver Center
Mon 02:53:53 AM 40.7028 -106.2794 82° East 450 518 33,000  Level Denver Center
Mon 02:54:53 AM 40.7186 -106.1186 83° East 447 514 33,000  Level Denver Center
Mon 02:55:54 AM 40.7353 -105.9569 82° East 446 513 33,000 99 Level Denver Center
Mon 02:56:54 AM 40.7522 -105.7964 82° East 446 513 33,200 300 Climbing Denver Center
Mon 02:57:54 AM 40.7678 -105.6372 83° East 439 505 33,600 347 Climbing Denver Center
Mon 02:58:55 AM 40.7844 -105.4714 82° East 448 516 33,900 545 Climbing Denver Center
Mon 02:59:55 AM 40.8006 -105.3061 83° East 453 521 34,700 545 Climbing Denver Center
Mon 03:00:56 AM 40.8175 -105.1383 82° East 454 522 35,000 149 Climbing Denver Center
Mon 03:01:56 AM 40.8328 -104.9742 83° East 454 522 35,000  Level Denver Center
Mon 03:02:57 AM 40.8489 -104.8053 83° East 457 526 35,000  Level Denver Center
Mon 03:03:57 AM 40.8642 -104.6364 83° East 460 529 35,000 50 Level Denver Center
Mon 03:04:57 AM 40.8792 -104.4675 83° East 461 531 35,100  Climbing Denver Center
Mon 03:05:58 AM 40.8942 -104.2981 83° East 465 535 35,000 -50 Descending Denver Center
Mon 03:06:58 AM 40.9097 -104.1283 83° East 465 535 35,000  Level Denver Center
Mon 03:07:59 AM 40.9236 -103.9608 84° East 463 533 35,000  Level Denver Center
Mon 03:08:59 AM 40.9378 -103.7931 84° East 462 532 35,000  Level Denver Center
Mon 03:10:00 AM 40.9519 -103.6247 84° East 462 532 35,000  Level Denver Center
Mon 03:11:00 AM 40.9661 -103.4586 84° East 460 529 35,000  Level Denver Center
Mon 03:12:01 AM 40.9778 -103.2939 85° East 456 525 35,000  Level Denver Center
Mon 03:13:01 AM 40.9931 -103.1094 84° East 454 522 35,000  Level Denver Center
Mon 03:14:02 AM 41.0042 -102.9597 84° East 454 522 35,000  Level Denver Center
Mon 03:15:02 AM 41.0189 -102.7742 84° East 454 522 35,000  Level Denver Center
Mon 03:16:02 AM 41.0308 -102.6139 84° East 455 524 35,000  Level Denver Center
Mon 03:17:03 AM 41.0428 -102.4531 84° East 455 524 35,000  Level Denver Center
Mon 03:18:03 AM 41.0569 -102.2644 84° East 458 527 35,000  Level Denver Center
Mon 03:19:04 AM 41.0694 -102.1019 84° East 462 532 35,000  Level Denver Center
Mon 03:20:04 AM 41.0803 -101.9400 85° East 462 532 35,000  Level Denver Center
Mon 03:21:05 AM 41.0908 -101.7800 85° East 459 528 35,000  Level Denver Center
Mon 03:22:05 AM 41.1036 -101.5908 85° East 459 528 35,000  Level Denver Center
Mon 03:23:06 AM 41.1139 -101.4294 85° East 459 528 35,000  Level Denver Center
Mon 03:24:06 AM 41.1233 -101.2689 85° East 457 526 35,000  Level Denver Center
Mon 03:25:06 AM 41.1333 -101.0817 86° East 457 526 35,000  Level Denver Center
Mon 03:26:07 AM 41.1431 -100.9178 85° East 458 527 35,000  Level Denver Center
Mon 03:27:07 AM 41.1525 -100.7539 86° East 460 529 35,000  Level Denver Center
Mon 03:28:08 AM 41.1628 -100.5883 85° East 463 533 35,000 50 Level Denver Center
Mon 03:29:08 AM 41.1731 -100.3967 86° East 463 533 35,100  Climbing Denver Center
Mon 03:30:09 AM 41.1817 -100.2319 86° East 464 534 35,000 -50 Descending Denver Center
Mon 03:31:09 AM 41.1894 -100.0700 86° East 462 532 35,000  Level Denver Center
Mon 03:32:10 AM 41.1975 -99.9122 86° East 453 521 35,000  Level Denver Center
Mon 03:33:10 AM 41.2058 -99.7286 86° East 449 517 35,000  Level Denver Center
Mon 03:34:10 AM 41.2139 -99.5719 86° East 447 514 35,000  Level Denver Center
Mon 03:35:11 AM 41.2206 -99.4253 86° East 441 507 35,000  Level Denver Center
Mon 03:36:11 AM 41.2286 -99.2619 86° East 441 507 35,000  Level Denver Center
Mon 03:37:12 AM 41.2372 -99.0778 86° East 442 509 35,000  Level Denver Center
Mon 03:38:12 AM 41.2439 -98.9194 87° East 444 511 35,000 50 Level Denver Center
Mon 03:39:13 AM 41.2503 -98.7339 87° East 448 516 35,100  Climbing Denver Center
Mon 03:40:25 AM 41.2583 -98.5492 87° East 447 514 35,000 -45 Descending Minneapolis Center
Mon 03:41:26 AM 41.2650 -98.3936 87° East 445 512 35,000  Level Minneapolis Center
Mon 03:42:26 AM 41.2706 -98.2331 87° East 440 506 35,000  Level Minneapolis Center
Mon 03:43:26 AM 41.2761 -98.0719 87° East 439 505 35,000  Level Minneapolis Center
Mon 03:44:27 AM 41.2825 -97.9092 87° East 439 505 35,000 50 Level Minneapolis Center
Mon 03:45:27 AM 41.2881 -97.7461 87° East 439 505 35,100  Climbing Minneapolis Center
Mon 03:46:27 AM 41.2928 -97.5853 88° East 439 505 35,000 -50 Descending Minneapolis Center
Mon 03:47:27 AM 41.2969 -97.4328 88° East 422 486 35,000  Level Minneapolis Center
Mon 03:48:28 AM 41.3006 -97.2761 88° East 417 480 35,000  Level Minneapolis Center
Mon 03:49:28 AM 41.3044 -97.1208 88° East 418 481 35,000  Level Minneapolis Center
Mon 03:50:28 AM 41.3078 -96.9686 88° East 417 480 35,000  Level Minneapolis Center
Mon 03:51:29 AM 41.3111 -96.8125 88° East 421 484 35,000  Level Minneapolis Center
Mon 03:52:29 AM 41.3156 -96.6614 88° East 415 478 35,000  Level Minneapolis Center
Mon 03:53:29 AM 41.3189 -96.5072 88° East 416 479 35,000  Level Minneapolis Center
Mon 03:54:30 AM 41.3219 -96.3544 88° East 416 479 35,000  Level Minneapolis Center
Mon 03:55:30 AM 41.3250 -96.2017 88° East 416 479 35,000  Level Minneapolis Center
Mon 03:56:30 AM 41.3272 -96.0481 89° East 416 479 35,000  Level Minneapolis Center
Mon 03:57:30 AM 41.3294 -95.8931 89° East 417 480 35,000  Level Minneapolis Center
Mon 03:58:31 AM 41.3333 -95.7364 88° East 419 482 35,000  Level Minneapolis Center
Mon 03:59:31 AM 41.3325 -95.5628 90° East 420 483 35,000  Level Minneapolis Center
Mon 04:00:31 AM 41.3356 -95.4053 88° East 421 484 35,000 198 Level Minneapolis Center
Mon 04:01:32 AM 41.3378 -95.2503 89° East 422 486 35,400 496 Climbing Minneapolis Center
Mon 04:02:32 AM 41.3378 -95.0947 90° East 422 486 36,000 300 Climbing Minneapolis Center
Mon 04:03:32 AM 41.3381 -94.9361 90° East 424 488 36,000  Level Minneapolis Center
Mon 04:04:33 AM 41.3397 -94.7800 89° East 424 488 36,000  Level Minneapolis Center
Mon 04:05:33 AM 41.3411 -94.6272 89° East 418 481 36,000  Level Minneapolis Center
Mon 04:06:33 AM 41.3417 -94.4583 90° East 417 480 36,000  Level Minneapolis Center
Mon 04:07:34 AM 41.3419 -94.3172 90° East 418 481 36,000  Level Minneapolis Center
Mon 04:08:34 AM 41.3419 -94.1700 90° East 418 481 36,000 50 Level Minneapolis Center
Mon 04:09:34 AM 41.3414 -94.0125 90° East 422 486 36,100  Climbing Minneapolis Center
Mon 04:10:35 AM 41.3419 -93.8550 90° East 424 488 36,000 -50 Descending Minneapolis Center
Mon 04:11:35 AM 41.3411 -93.6961 90° East 426 490 36,000  Level Minneapolis Center
Mon 04:12:35 AM 41.3408 -93.5381 90° East 427 491 36,000  Level Minneapolis Center
Mon 04:13:36 AM 41.3392 -93.3794 91° East 428 493 36,000  Level Minneapolis Center
Mon 04:14:36 AM 41.3383 -93.2219 90° East 428 493 36,000  Level Minneapolis Center
Mon 04:15:36 AM 41.3375 -93.0661 90° East 428 493 36,000  Level Minneapolis Center
Mon 04:16:37 AM 41.3347 -92.9083 91° East 427 491 36,000  Level Minneapolis Center
Mon 04:17:37 AM 41.3333 -92.7194 90° East 427 491 36,000  Level Minneapolis Center
Mon 04:18:37 AM 41.3311 -92.5603 91° East 428 493 36,000 50 Level Minneapolis Center
Mon 04:19:38 AM 41.3294 -92.4011 91° East 430 495 36,100  Climbing Minneapolis Center
Mon 04:20:38 AM 41.3269 -92.2433 91° East 430 495 36,000 -50 Descending Minneapolis Center
Mon 04:21:38 AM 41.3236 -92.0836 92° East 430 495 36,000  Level Minneapolis Center
Mon 04:22:39 AM 41.3208 -91.9231 91° East 431 496 36,000 198 Level Minneapolis Center
Mon 04:23:39 AM 41.3175 -91.7603 92° East 435 501 36,400 417 Climbing Minneapolis Center
Mon 04:25:03 AM 41.3128 -91.5494 92° East 436 502 37,000 250 Climbing Chicago Center
Mon 04:26:03 AM 41.3092 -91.3872 92° East 440 506 37,000  Level Chicago Center
Mon 04:27:04 AM 41.3050 -91.2156 92° East 440 506 37,000  Level Chicago Center
Mon 04:28:04 AM 41.3011 -91.0528 92° East 441 507 37,000  Level Chicago Center
Mon 04:29:04 AM 41.2964 -90.8894 92° East 441 507 37,000  Level Chicago Center
Mon 04:30:04 AM 41.2908 -90.7247 93° East 442 509 37,000  Level Chicago Center
Mon 04:31:05 AM 41.2864 -90.5603 92° East 442 509 37,000  Level Chicago Center
Mon 04:32:05 AM 41.2808 -90.3958 93° East 442 509 37,000  Level Chicago Center
Mon 04:33:05 AM 41.2756 -90.2292 92° East 444 511 37,000  Level Chicago Center
Mon 04:34:05 AM 41.2694 -90.0636 93° East 445 512 37,000  Level Chicago Center
Mon 04:35:06 AM 41.2642 -89.8953 92° East 451 519 37,000  Level Chicago Center
Mon 04:36:06 AM 41.2583 -89.7269 93° East 451 519 37,000  Level Chicago Center
Mon 04:37:06 AM 41.2517 -89.5578 93° East 452 520 37,000  Level Chicago Center
Mon 04:38:06 AM 41.2444 -89.3881 93° East 455 524 37,000  Level Chicago Center
Mon 04:39:07 AM 41.2389 -89.2194 92° East 455 524 37,000  Level Chicago Center
Mon 04:40:07 AM 41.2294 -89.0622 95° East 454 522 37,000  Level Chicago Center
Mon 04:41:07 AM 41.2228 -88.8956 93° East 454 522 37,000  Level Chicago Center
Mon 04:42:07 AM 41.2156 -88.7297 93° East 453 521 37,000  Level Chicago Center
Mon 04:43:08 AM 41.2067 -88.5633 94° East 454 522 37,000  Level Chicago Center
Mon 04:44:08 AM 41.1978 -88.3631 93° East 457 526 37,000  Level Chicago Center
Mon 04:45:08 AM 41.1892 -88.1961 94° East 458 527 37,000  Level Chicago Center
Mon 04:46:08 AM 41.1792 -88.0283 94° East 465 535 37,000  Level Chicago Center
Mon 04:47:09 AM 41.1700 -87.8578 94° East 469 540 37,000  Level Chicago Center
Mon 04:48:09 AM 41.1608 -87.6875 94° East 470 541 37,000  Level Chicago Center
Mon 04:49:09 AM 41.1525 -87.5158 94° East 470 541 37,000  Level Chicago Center
Mon 04:50:09 AM 41.1414 -87.3458 95° East 466 536 37,000  Level Chicago Center
Mon 04:51:10 AM 41.1306 -87.1753 95° East 467 537 37,000  Level Chicago Center
Mon 04:52:10 AM 41.1206 -87.0042 94° East 467 537 37,000  Level Chicago Center
Mon 04:53:10 AM 41.1103 -86.8322 94° East 467 537 37,000  Level Chicago Center
Mon 04:54:11 AM 41.0981 -86.6506 95° East 468 539 37,000  Level Chicago Center
Mon 04:55:11 AM 41.0869 -86.4778 95° East 470 541 37,000  Level Chicago Center
Mon 04:56:11 AM 41.0753 -86.3025 95° East 475 547 37,000  Level Chicago Center
Mon 04:57:11 AM 41.0636 -86.1281 95° East 478 550 37,000  Level Chicago Center
Mon 04:58:12 AM 41.0508 -85.9506 95° East 485 558 37,000  Level Chicago Center
Mon 04:59:12 AM 41.0378 -85.7742 96° East 486 559 37,000  Level Chicago Center
Mon 05:00:12 AM 41.0236 -85.5942 96° East 491 565 37,000  Level Chicago Center
Mon 05:01:12 AM 41.0108 -85.4158 95° East 492 566 37,000  Level Chicago Center
Mon 05:02:13 AM 40.9961 -85.2289 96° East 508 585 37,000  Level Chicago Center
Mon 05:03:13 AM 40.9817 -85.0492 96° East 505 581 37,000  Level Chicago Center
Mon 05:04:13 AM 40.9678 -84.8694 96° East 498 573 37,000  Level Chicago Center
Mon 05:05:14 AM 40.9539 -84.6881 96° East 498 573 37,000  Level Chicago Center
Mon 05:06:14 AM 40.9375 -84.5042 97° East 503 579 37,000  Level Chicago Center
Mon 05:07:14 AM 40.9214 -84.3200 97° East 505 581 37,000  Level Chicago Center
Mon 05:08:15 AM 40.9064 -84.1369 96° East 505 581 37,000  Level Chicago Center
Mon 05:09:15 AM 40.8903 -83.9528 97° East 506 582 37,000  Level Chicago Center
Mon 05:10:15 AM 40.8733 -83.7672 97° East 506 582 37,000  Level Chicago Center
Mon 05:11:16 AM 40.8558 -83.5825 97° East 508 585 37,000  Level Chicago Center
Mon 05:12:16 AM 40.8386 -83.3969 97° East 509 586 37,000  Level Chicago Center
Mon 05:13:27 AM 40.8150 -83.1464 97° East 512 589 37,000  Level Cleveland Center
Mon 05:14:28 AM 40.7969 -82.9586 97° East 512 589 37,000  Level Cleveland Center
Mon 05:15:28 AM 40.7783 -82.7658 97° East 513 590 37,000  Level Cleveland Center
Mon 05:16:28 AM 40.7597 -82.5814 98° East 511 588 37,000  Level Cleveland Center
Mon 05:17:29 AM 40.7403 -82.3969 98° East 509 586 37,000  Level Cleveland Center
Mon 05:18:29 AM 40.7214 -82.2133 98° East 507 583 37,000  Level Cleveland Center
Mon 05:19:29 AM 40.7014 -82.0283 98° East 507 583 37,000  Level Cleveland Center
Mon 05:20:29 AM 40.6853 -81.8447 97° East 507 583 37,000  Level Cleveland Center
Mon 05:21:30 AM 40.6719 -81.6611 95° East 505 581 37,000  Level Cleveland Center
Mon 05:22:30 AM 40.6583 -81.4783 96° East 502 578 37,000 -50 Level Cleveland Center
Mon 05:23:30 AM 40.6444 -81.2961 96° East 500 575 36,900  Descending Cleveland Center
Mon 05:24:31 AM 40.6308 -81.1133 96° East 499 574 37,000 50 Climbing Cleveland Center
Mon 05:25:31 AM 40.6178 -80.9578 96° East 499 574 37,000  Level Cleveland Center
Mon 05:26:31 AM 40.6031 -80.7742 96° East 501 577 37,000  Level Cleveland Center
Mon 05:27:32 AM 40.5886 -80.5894 96° East 505 581 37,000 -397 Level Cleveland Center
Mon 05:28:32 AM 40.5736 -80.4039 96° East 506 582 36,200 -900 Descending Cleveland Center
Mon 05:29:32 AM 40.5575 -80.2236 97° East 504 580 35,200 -942 Descending Cleveland Center
Mon 05:30:33 AM 40.5397 -80.0436 97° East 501 577 34,300 -992 Descending Cleveland Center
Mon 05:31:33 AM 40.5236 -79.8492 96° East 497 572 33,200 -1,000 Descending Cleveland Center
Mon 05:32:33 AM 40.5075 -79.6672 97° East 499 574 32,300 -942 Descending Cleveland Center
Mon 05:33:34 AM 40.4906 -79.4881 97° East 497 572 31,300 -645 Descending Cleveland Center
Mon 05:34:34 AM 40.4725 -79.2906 97° East 499 574 31,000 -150 Descending Cleveland Center
Mon 05:35:34 AM 40.4569 -79.1139 97° East 499 574 31,000  Level Cleveland Center
Mon 05:36:35 AM 40.4383 -78.9333 98° East 500 575 31,000  Level Cleveland Center
Mon 05:37:35 AM 40.4208 -78.7522 97° East 502 578 31,000  Level Cleveland Center
Mon 05:38:36 AM 40.4025 -78.5717 98° East 504 580 31,000  Level Cleveland Center
Mon 05:39:36 AM 40.3847 -78.3878 97° East 510 587 31,000  Level Cleveland Center
Mon 05:40:36 AM 40.3658 -78.2033 98° East 514 592 31,000 -149 Level Cleveland Center
Mon 05:41:37 AM 40.3464 -78.0233 98° East 511 588 30,700 -942 Descending Cleveland Center
Mon 05:42:37 AM 40.3269 -77.8422 98° East 510 587 29,100 -1,488 Descending Cleveland Center
Mon 05:43:38 AM 40.3075 -77.6661 98° East 501 577 27,700 -1,587 Descending Cleveland Center
Mon 05:44:38 AM 40.2864 -77.4606 98° East 484 557 25,900 -1,574 Descending Cleveland Center
Mon 05:45:40 AM 40.2689 -77.2917 98° East 476 548 24,500 -1,328 Descending New York Center
Mon 05:46:40 AM 40.2478 -77.1456 101° East 463 533 23,200 -1,400 Descending New York Center
Mon 05:47:40 AM 40.2292 -76.9833 98° East 456 525 21,700 -1,850 Descending New York Center
Mon 05:48:40 AM 40.2106 -76.8214 99° East 451 519 19,500 -2,100 Descending New York Center
Mon 05:49:40 AM 40.1936 -76.6650 98° East 442 509 17,500 -2,100 Descending New York Center
Mon 05:50:40 AM 40.1747 -76.4975 98° East 428 493 15,300 -2,350 Descending New York Center
Mon 05:51:40 AM 40.1567 -76.3522 99° East 415 478 12,800 -2,250 Descending New York Center
Mon 05:52:40 AM 40.1403 -76.2122 99° East 409 471 10,800 -1,250 Descending New York Center
Mon 05:53:40 AM 40.1269 -76.0919 98° East 386 444 10,300 -850 Descending New York Center
Mon 05:54:40 AM 40.1097 -75.9628 100° East 338 389 9,100 -1,250 Descending New York Center
Mon 05:55:40 AM 40.0936 -75.8531 101° East 316 364 7,800 -1,250 Descending New York Center
Mon 05:56:40 AM 40.0811 -75.7572 100° East 306 352 6,600 -900 Descending New York Center
Mon 05:57:40 AM 40.0775 -75.6403 92° East 289 333 6,000 -300 Descending New York Center
Mon 05:58:40 AM 40.0753 -75.5481 92° East 289 333 6,000  Level New York Center
Mon 05:59:40 AM 40.0733 -75.4339 91° East 289 333 6,000 -50 Level New York Center
Mon 06:00:40 AM 40.0708 -75.3414 92° East 289 333 5,900 -750 Descending New York Center
Mon 06:01:40 AM 40.0456 -75.2422 108° East 284 327 4,500 -1,350 Descending New York Center
Mon 06:02:40 AM 40.0200 -75.1431 109° East 274 315 3,200 -1,000 Descending New York Center
Mon 06:03:40 AM 39.9697 -75.0911 142° Southeast 234 269 2,500 -550 Descending New York Center
Mon 06:04:40 AM 39.9111 -75.1036 189° South 195 224 2,100 -600 Descending New York Center
Mon 06:05:40 AM 39.8861 -75.1536 237° Southwest 158 182 1,300 -800 Descending New York Center
Mon 06:06:40 AM 39.8822 -75.2019 264° West 153 176 500 -800 Descending New York Center
Mon 06:08:00 AM 39.8667 -75.2333 247° West  Level FlightAware Approximate
Mon 06:15:00 AM 39.8722 -75.2409 247° West  Level Estimated

Login

Don't have an account? Register now (free) for customized features, flight alerts, and more!